createdAt,value
2019-04-23T00:01:07.522Z,22.10
2019-04-23T00:03:34.361Z,22.50
2019-04-23T00:06:16.460Z,21.90
2019-04-23T00:08:44.813Z,21.53
2019-04-23T00:11:13.563Z,20.77
2019-04-23T00:13:45.436Z,22.70
2019-04-23T00:18:42.598Z,23.60
2019-04-23T00:24:34.833Z,25.07
2019-04-23T00:27:08.759Z,21.87
2019-04-23T00:29:36.809Z,21.60
2019-04-23T00:32:08.186Z,22.40
2019-04-23T00:34:41.430Z,22.23
2019-04-23T00:37:15.733Z,21.47
2019-04-23T00:39:40.805Z,24.50
2019-04-23T00:42:17.693Z,21.70
2019-04-23T00:44:45.917Z,25.47
2019-04-23T00:47:20.951Z,21.40
2019-04-23T00:49:54.541Z,22.83
2019-04-23T00:54:58.073Z,23.13
2019-04-23T00:57:34.060Z,27.53
2019-04-23T01:00:02.051Z,26.70
2019-04-23T01:02:32.878Z,32.73
2019-04-23T01:07:38.130Z,30.83
2019-04-23T01:10:13.943Z,28.07
2019-04-23T01:12:56.281Z,30.57
2019-04-23T01:15:18.825Z,26.33
2019-04-23T01:20:51.989Z,29.47
2019-04-23T01:23:05.445Z,24.70
2019-04-23T01:25:52.274Z,26.90
2019-04-23T01:28:41.863Z,22.87
2019-04-23T01:31:16.602Z,22.20
2019-04-23T01:33:47.023Z,27.07
2019-04-23T01:39:09.829Z,24.93
2019-04-23T01:43:50.348Z,25.83
2019-04-23T01:46:29.151Z,26.70
2019-04-23T01:48:58.315Z,26.77
2019-04-23T01:51:33.913Z,29.93
2019-04-23T01:54:06.783Z,30.00
2019-04-23T01:56:33.778Z,30.87
2019-04-23T01:59:16.163Z,30.27
2019-04-23T02:01:44.668Z,31.53
2019-04-23T02:04:16.512Z,29.73
2019-04-23T02:06:45.450Z,30.60
2019-04-23T02:09:16.710Z,32.97
2019-04-23T02:11:55.223Z,29.63
2019-04-23T02:17:23.339Z,30.90
2019-04-23T02:19:55.209Z,34.73
2019-04-23T02:22:46.352Z,31.83
2019-04-23T02:25:42.267Z,36.70
2019-04-23T02:30:53.137Z,31.53
2019-04-23T02:33:17.683Z,30.17
2019-04-23T02:35:50.038Z,31.63
2019-04-23T02:40:58.947Z,34.03
2019-04-23T02:43:22.098Z,31.73
2019-04-23T02:54:00.754Z,33.53
2019-04-23T02:56:30.877Z,29.07
2019-04-23T02:58:55.033Z,31.67
2019-04-23T03:09:07.050Z,33.53
2019-04-23T03:19:47.657Z,33.87
2019-04-23T03:22:45.186Z,34.97
2019-04-23T03:25:26.123Z,36.90
2019-04-23T03:27:45.989Z,32.87
2019-04-23T03:38:41.753Z,31.30
2019-04-23T03:41:08.863Z,36.23
2019-04-23T03:43:33.753Z,33.13
2019-04-23T03:46:15.709Z,34.70
2019-04-23T03:48:45.380Z,34.30
2019-04-23T03:51:01.370Z,42.30
2019-04-23T03:53:55.884Z,35.70
2019-04-23T03:56:38.402Z,33.23
2019-04-23T03:58:42.810Z,35.03
2019-04-23T04:01:21.619Z,28.17
2019-04-23T04:04:20.584Z,29.17
2019-04-23T04:06:33.782Z,29.03
2019-04-23T04:16:37.994Z,35.23
2019-04-23T04:19:06.363Z,32.33
2019-04-23T04:26:52.438Z,29.97
2019-04-23T04:31:48.102Z,29.10
2019-04-23T04:37:17.675Z,29.53
2019-04-23T04:49:49.446Z,28.73
2019-04-23T04:52:22.208Z,29.07
2019-04-23T04:54:24.525Z,29.67
2019-04-23T04:57:11.762Z,28.90
2019-04-23T04:59:45.808Z,30.93
2019-04-23T05:05:13.707Z,28.27
2019-04-23T05:07:11.143Z,27.00
2019-04-23T05:20:23.978Z,29.87
2019-04-23T05:25:15.492Z,30.33
2019-04-23T05:28:02.750Z,29.57
2019-04-23T05:30:29.756Z,32.90
2019-04-23T05:32:56.041Z,28.30
2019-04-23T05:35:33.453Z,33.60
2019-04-23T05:38:15.454Z,31.47
2019-04-23T05:40:37.125Z,33.50
2019-04-23T05:43:08.216Z,34.83
2019-04-23T05:45:35.124Z,34.53
2019-04-23T05:48:13.388Z,42.33
2019-04-23T05:53:11.483Z,35.33
2019-04-23T05:55:49.325Z,34.20
2019-04-23T05:58:22.096Z,42.17
2019-04-23T06:01:01.440Z,35.87
2019-04-23T06:03:22.354Z,38.53
2019-04-23T06:06:02.964Z,38.90
2019-04-23T06:11:03.904Z,44.87
2019-04-23T06:13:39.448Z,46.87
2019-04-23T06:16:05.056Z,46.40
2019-04-23T06:18:38.916Z,49.57
2019-04-23T06:21:10.474Z,47.33
2019-04-23T06:23:43.552Z,44.17
2019-04-23T06:26:25.511Z,42.67
2019-04-23T06:28:48.727Z,46.10
2019-04-23T06:31:22.881Z,41.33
2019-04-23T06:33:54.165Z,46.90
2019-04-23T06:36:25.634Z,45.93
2019-04-23T06:41:46.428Z,41.20
2019-04-23T06:44:52.058Z,43.30
2019-04-23T06:47:06.919Z,44.23
2019-04-23T06:52:18.384Z,43.97
2019-04-23T06:54:47.756Z,43.40
2019-04-23T06:57:17.987Z,45.37
2019-04-23T06:59:52.672Z,46.23
2019-04-23T07:05:12.236Z,47.63
2019-04-23T07:10:13.104Z,46.00
2019-04-23T07:12:38.956Z,41.23
2019-04-23T07:15:12.913Z,40.07
2019-04-23T07:17:29.004Z,37.93
2019-04-23T07:20:06.773Z,43.20
2019-04-23T07:22:41.409Z,40.20
2019-04-23T07:25:14.105Z,40.93
2019-04-23T07:27:43.155Z,39.90
2019-04-23T07:32:50.909Z,41.13
2019-04-23T07:35:15.760Z,41.80
2019-04-23T07:38:01.847Z,40.47
2019-04-23T07:43:21.423Z,38.47
2019-04-23T07:46:25.923Z,39.20
2019-04-23T07:48:40.728Z,40.73
2019-04-23T07:51:19.791Z,40.37
2019-04-23T07:53:51.786Z,39.33
2019-04-23T07:56:21.438Z,38.10
2019-04-23T07:58:54.351Z,35.57
2019-04-23T08:01:44.760Z,36.37
2019-04-23T08:04:18.262Z,40.43
2019-04-23T08:06:31.998Z,36.47
2019-04-23T08:09:06.285Z,34.70
2019-04-23T08:11:51.499Z,35.53
2019-04-23T08:14:08.357Z,44.40
2019-04-23T08:16:49.961Z,36.17
2019-04-23T08:19:05.697Z,33.80
2019-04-23T08:21:52.503Z,34.27
2019-04-23T08:24:47.028Z,36.43
2019-04-23T08:27:28.203Z,38.37
2019-04-23T08:30:03.312Z,36.53
2019-04-23T08:32:37.023Z,35.03
2019-04-23T08:37:58.507Z,36.30
2019-04-23T08:40:15.113Z,35.23
2019-04-23T08:43:05.705Z,37.80
2019-04-23T08:48:17.296Z,38.47
2019-04-23T08:50:40.055Z,40.43
2019-04-23T08:53:29.685Z,40.10
2019-04-23T08:55:49.466Z,41.77
2019-04-23T09:03:25.113Z,39.90
2019-04-23T09:05:57.790Z,38.07
2019-04-23T09:11:16.640Z,36.23
2019-04-23T09:16:05.255Z,40.00
2019-04-23T09:18:37.176Z,37.53
2019-04-23T09:23:46.675Z,37.13
2019-04-23T09:26:09.014Z,33.17
2019-04-23T09:32:00.798Z,37.03
2019-04-23T09:34:16.903Z,43.73
2019-04-23T09:37:20.710Z,37.00
2019-04-23T09:40:18.834Z,36.13
2019-04-23T09:45:41.066Z,37.10
2019-04-23T09:48:04.536Z,35.57
2019-04-23T09:50:43.378Z,34.87
2019-04-23T09:53:24.932Z,35.43
2019-04-23T09:55:41.778Z,30.43
2019-04-23T10:00:52.606Z,30.70
2019-04-23T10:03:19.588Z,32.50
2019-04-23T10:05:48.281Z,36.67
2019-04-23T10:08:16.176Z,31.70
2019-04-23T10:10:40.485Z,31.10
2019-04-23T10:13:13.709Z,32.13
2019-04-23T10:15:46.726Z,31.73
2019-04-23T10:18:16.462Z,31.80
2019-04-23T10:20:46.940Z,26.93
2019-04-23T10:23:19.016Z,28.87
2019-04-23T10:25:52.061Z,27.37
2019-04-23T10:28:26.869Z,27.30
2019-04-23T10:30:58.804Z,28.77
2019-04-23T10:33:29.612Z,28.20
2019-04-23T10:36:04.832Z,29.07
2019-04-23T10:38:34.170Z,32.50
2019-04-23T10:41:04.632Z,28.83
2019-04-23T10:43:38.741Z,27.23
2019-04-23T10:46:58.750Z,30.17
2019-04-23T10:57:16.632Z,23.97
2019-04-23T11:04:57.467Z,27.43
2019-04-23T11:07:31.265Z,25.17
2019-04-23T11:12:49.155Z,23.10
2019-04-23T11:15:26.415Z,27.57
2019-04-23T11:20:33.800Z,26.33
2019-04-23T11:23:08.106Z,22.57
2019-04-23T11:25:34.895Z,18.03
2019-04-23T11:28:13.496Z,23.20
2019-04-23T11:30:45.229Z,22.70
2019-04-23T11:36:22.275Z,24.00
2019-04-23T11:41:00.562Z,23.93
2019-04-23T11:43:32.459Z,20.53
2019-04-23T11:46:21.209Z,19.95
2019-04-23T11:50:59.848Z,22.32
2019-04-23T11:56:26.935Z,17.75
2019-04-23T11:58:49.234Z,23.77
2019-04-23T12:01:49.587Z,18.93
2019-04-23T12:10:04.783Z,17.70
2019-04-23T12:12:33.050Z,17.37
2019-04-23T12:17:53.880Z,21.40
2019-04-23T12:20:16.225Z,16.77
2019-04-23T12:22:58.839Z,20.57
2019-04-23T12:25:32.919Z,17.65
2019-04-23T12:27:39.068Z,18.45
2019-04-23T12:30:25.321Z,17.87
2019-04-23T12:35:22.510Z,11.35
2019-04-23T12:38:17.198Z,19.90
2019-04-23T12:40:38.161Z,16.50
2019-04-23T12:43:19.133Z,14.20
2019-04-23T12:45:45.803Z,16.05
2019-04-23T12:55:54.482Z,23.27
2019-04-23T12:58:27.028Z,17.20
2019-04-23T13:00:57.317Z,17.60
2019-04-23T13:03:34.162Z,17.50
2019-04-23T13:05:59.330Z,17.62
2019-04-23T13:11:17.630Z,15.00
2019-04-23T13:13:58.760Z,18.92
2019-04-23T13:16:19.573Z,15.53
2019-04-23T13:18:47.021Z,17.87
2019-04-23T13:21:41.479Z,18.10
2019-04-23T13:24:15.940Z,25.02
2019-04-23T13:26:56.971Z,17.80
2019-04-23T13:29:38.242Z,27.45
2019-04-23T13:32:00.839Z,24.23
2019-04-23T13:34:40.712Z,20.17
2019-04-23T13:39:51.913Z,21.95
2019-04-23T13:42:35.615Z,20.02
2019-04-23T13:44:55.943Z,21.12
2019-04-23T13:47:41.386Z,16.87
2019-04-23T13:50:07.741Z,20.30
2019-04-23T14:00:36.935Z,17.50
2019-04-23T14:05:33.136Z,24.17
2019-04-23T14:13:28.512Z,25.75
2019-04-23T14:20:50.563Z,27.00
2019-04-23T14:23:27.167Z,21.00
2019-04-23T14:28:29.025Z,20.50
2019-04-23T14:31:00.618Z,21.13
2019-04-23T14:33:37.907Z,24.77
2019-04-23T14:36:03.244Z,20.37
2019-04-23T14:51:26.854Z,21.27
2019-04-23T14:53:48.331Z,20.80
2019-04-23T14:56:20.160Z,17.30
2019-04-23T14:59:07.138Z,18.53
2019-04-23T15:01:35.412Z,17.57
2019-04-23T15:03:57.588Z,16.20
2019-04-23T15:06:37.844Z,18.33
2019-04-23T15:09:19.187Z,20.20
2019-04-23T15:11:45.137Z,14.80
2019-04-23T15:16:54.427Z,24.23
2019-04-23T15:29:24.852Z,16.97
2019-04-23T15:32:09.688Z,15.40
2019-04-23T15:34:36.851Z,16.13
2019-04-23T15:39:55.384Z,17.33
2019-04-23T15:42:29.550Z,19.03
2019-04-23T15:44:55.663Z,14.87
2019-04-23T15:47:28.426Z,18.67
2019-04-23T15:50:00.855Z,18.60
2019-04-23T15:52:33.246Z,16.80
2019-04-23T15:55:15.142Z,14.10
2019-04-23T15:57:56.229Z,16.10
2019-04-23T16:02:09.715Z,15.90
2019-04-23T16:04:40.315Z,20.60
2019-04-23T16:07:16.860Z,17.20
2019-04-23T16:10:17.626Z,16.50
2019-04-23T16:12:51.879Z,20.37
2019-04-23T16:15:13.232Z,20.97
2019-04-23T16:18:07.893Z,18.47
2019-04-23T16:20:37.898Z,16.07
2019-04-23T16:22:55.233Z,15.93
2019-04-23T16:25:37.765Z,19.27
2019-04-23T16:28:12.932Z,19.20
2019-04-23T16:30:36.789Z,13.23
2019-04-23T16:33:11.426Z,20.67
2019-04-23T16:36:11.182Z,18.63
2019-04-23T16:41:15.469Z,20.07
2019-04-23T16:43:48.723Z,19.50
2019-04-23T16:46:21.498Z,17.23
2019-04-23T16:49:02.778Z,17.13
2019-04-23T16:51:24.566Z,16.93
2019-04-23T16:53:55.989Z,19.23
2019-04-23T16:56:41.621Z,17.23
2019-04-23T17:01:30.321Z,21.17
2019-04-23T17:04:03.677Z,22.43
2019-04-23T17:06:40.955Z,19.77
2019-04-23T17:11:56.816Z,20.17
2019-04-23T17:14:13.385Z,21.93
2019-04-23T17:25:04.260Z,25.67
2019-04-23T17:27:30.599Z,23.13
2019-04-23T17:29:58.608Z,25.87
2019-04-23T17:32:28.246Z,18.37
2019-04-23T17:35:17.421Z,21.00
2019-04-23T17:37:48.648Z,24.17
2019-04-23T17:40:39.383Z,20.83
2019-04-23T17:43:14.719Z,24.10
2019-04-23T17:48:35.934Z,22.60
2019-04-23T17:53:48.682Z,21.40
2019-04-23T17:58:49.984Z,19.70
2019-04-23T18:01:35.285Z,20.40
2019-04-23T18:04:06.954Z,20.03
2019-04-23T18:09:09.837Z,20.97
2019-04-23T18:11:31.216Z,21.57
2019-04-23T18:19:12.372Z,23.07
2019-04-23T18:21:55.321Z,18.27
2019-04-23T18:24:50.215Z,13.40
2019-04-23T18:27:21.091Z,19.27
2019-04-23T18:30:01.022Z,19.30
2019-04-23T18:32:45.697Z,24.90
2019-04-23T18:37:46.317Z,25.07
2019-04-23T18:40:14.132Z,22.97
2019-04-23T19:01:27.968Z,21.47
2019-04-23T19:04:17.199Z,18.70
2019-04-23T19:06:59.438Z,18.03
2019-04-23T19:10:05.667Z,15.37
2019-04-23T19:12:30.253Z,16.40
2019-04-23T19:17:50.540Z,13.83
2019-04-23T19:20:35.301Z,16.73
2019-04-23T19:22:55.152Z,14.20
2019-04-23T19:25:22.835Z,14.40
2019-04-23T19:33:25.140Z,25.90
2019-04-23T19:38:17.738Z,21.33
2019-04-23T19:43:26.907Z,18.60
2019-04-23T19:46:05.638Z,18.10
2019-04-23T19:48:34.412Z,17.53
2019-04-23T19:54:06.607Z,21.07
2019-04-23T19:58:54.790Z,14.43
2019-04-23T20:01:21.073Z,15.87
2019-04-23T20:03:55.906Z,15.10
2019-04-23T20:06:52.185Z,18.77
2019-04-23T20:09:10.581Z,18.07
2019-04-23T20:11:42.308Z,17.20
2019-04-23T20:14:02.443Z,15.93
2019-04-23T20:16:50.607Z,16.53
2019-04-23T20:19:28.036Z,20.57
2019-04-23T20:22:06.194Z,16.93
2019-04-23T20:24:28.610Z,14.53
2019-04-23T20:35:17.416Z,23.77
2019-04-23T20:40:28.836Z,19.57
2019-04-23T20:42:53.591Z,18.73
2019-04-23T20:45:27.304Z,21.67
2019-04-23T20:47:57.483Z,20.53
2019-04-23T20:50:27.651Z,26.73
2019-04-23T20:52:58.439Z,18.20
2019-04-23T20:55:55.621Z,17.73
2019-04-23T20:58:20.897Z,22.67
2019-04-23T21:01:11.225Z,19.53
2019-04-23T21:06:06.906Z,20.67
2019-04-23T21:11:08.786Z,20.60
2019-04-23T21:13:56.174Z,13.00
2019-04-23T21:16:21.154Z,17.73
2019-04-23T21:18:49.895Z,13.20
2019-04-23T21:21:31.556Z,17.37
2019-04-23T21:24:11.151Z,29.07
2019-04-23T21:26:26.347Z,22.20
2019-04-23T21:29:02.589Z,19.77
2019-04-23T21:31:42.782Z,16.60
2019-04-23T21:34:12.788Z,13.83
2019-04-23T21:37:07.828Z,12.83
2019-04-23T21:42:56.750Z,15.40
2019-04-23T21:45:26.087Z,12.17
2019-04-23T21:50:39.732Z,12.27
2019-04-23T21:52:59.481Z,14.17
2019-04-23T21:55:43.621Z,14.27
2019-04-23T21:58:19.359Z,12.50
2019-04-23T22:00:48.461Z,12.40
2019-04-23T22:05:52.828Z,16.83
2019-04-23T22:08:20.476Z,11.97
2019-04-23T22:11:08.766Z,12.87
2019-04-23T22:13:30.693Z,12.17
2019-04-23T22:16:11.039Z,14.67
2019-04-23T22:18:30.154Z,16.50
2019-04-23T22:21:14.423Z,12.77
2019-04-23T22:23:42.081Z,13.77
2019-04-23T22:26:25.428Z,11.13
2019-04-23T22:31:12.392Z,13.97
2019-04-23T22:33:47.032Z,13.37
2019-04-23T22:38:49.497Z,9.80
2019-04-23T22:41:15.914Z,12.03
2019-04-23T22:44:00.489Z,13.93
2019-04-23T22:46:24.286Z,14.40
2019-04-23T22:51:47.596Z,19.40
2019-04-23T22:54:08.409Z,18.27
2019-04-23T22:56:50.126Z,20.27
2019-04-23T22:59:18.675Z,21.40
2019-04-23T23:02:25.494Z,18.10
2019-04-23T23:07:02.926Z,12.90
2019-04-23T23:09:33.422Z,16.33
2019-04-23T23:12:02.266Z,12.47
2019-04-23T23:14:43.038Z,15.77
2019-04-23T23:17:02.273Z,18.97
2019-04-23T23:22:10.208Z,17.57
2019-04-23T23:24:46.492Z,17.57
2019-04-23T23:27:18.413Z,16.33
2019-04-23T23:30:00.742Z,16.17
2019-04-23T23:32:23.252Z,18.13
2019-04-23T23:35:12.927Z,15.47
2019-04-23T23:37:19.349Z,17.70
2019-04-23T23:40:10.947Z,17.47
2019-04-23T23:42:36.643Z,20.83
2019-04-23T23:45:16.347Z,20.03
2019-04-23T23:47:28.908Z,16.53
2019-04-23T23:50:17.870Z,18.10
2019-04-23T23:52:48.987Z,16.77
2019-04-23T23:55:16.582Z,17.03
2019-04-23T23:57:44.436Z,21.43
